Time;durP1;ratioP1;P1;durP2;ratioP2;P2;SDS_P1;SDS_P2;PMS_P1;PMS_P2;Temp;Humidity;BMP_temperature;BMP_pressure;BME280_temperature;BME280_humidity;BME280_pressure;Samples;Min_cycle;Max_cycle;Signal;HPM_P1;HPM_P2
2022/08/20 00:00:14;;;;;;;;;;;15.00;99.90;;;;;;5053171;28;19932;-51
2022/08/20 00:02:41;;;;;;;;;;;15.00;99.90;;;;;;5052558;28;19932;-53
2022/08/20 00:05:08;;;;;;;;;;;15.00;99.90;;;;;;5053101;28;19931;-52
2022/08/20 00:07:35;;;;;;;;;;;15.00;99.90;;;;;;5052188;28;20000;-54
2022/08/20 00:10:04;;;;;;;;;;;15.00;99.90;;;;;;5052624;28;19924;-53
2022/08/20 00:12:32;;;;;;;;;;;15.00;99.90;;;;;;5039324;28;20577;-51
2022/08/20 00:14:58;;;;;;;;;;;15.00;99.90;;;;;;5052166;28;19924;-54
2022/08/20 00:17:25;;;;;;;;;;;15.00;99.90;;;;;;5053262;28;19993;-54
2022/08/20 00:19:51;;;;;;;;;;;15.00;99.90;;;;;;5053047;28;19951;-53
2022/08/20 00:22:18;;;;;;;;;;;15.00;99.90;;;;;;5052823;28;20006;-52
2022/08/20 00:24:45;;;;;;;;;;;15.00;99.90;;;;;;5052952;28;19928;-53
2022/08/20 00:27:11;;;;;;;;;;;15.00;99.90;;;;;;5052329;28;20014;-52
2022/08/20 00:29:38;;;;;;;;;;;15.00;99.90;;;;;;5051449;28;19924;-53
2022/08/20 00:32:05;;;;;;;;;;;15.00;99.90;;;;;;5052883;28;19924;-53
2022/08/20 00:34:32;;;;;;;;;;;15.00;99.90;;;;;;5052741;28;19925;-52
2022/08/20 00:36:58;;;;;;;;;;;15.00;99.90;;;;;;5053069;28;20451;-54
2022/08/20 00:39:25;;;;;;;;;;;15.00;99.90;;;;;;5052471;28;19985;-54
2022/08/20 00:41:51;;;;;;;;;;;15.00;99.90;;;;;;5050982;28;19986;-53
2022/08/20 00:44:20;;;;;;;;;;;15.00;99.90;;;;;;5051921;28;19998;-53
2022/08/20 00:46:47;;;;;;;;;;;15.00;99.90;;;;;;5052925;28;20585;-53
2022/08/20 00:49:16;;;;;;;;;;;15.00;99.90;;;;;;5051851;28;20459;-53
2022/08/20 00:51:49;;;;;;;;;;;15.00;99.90;;;;;;5052827;28;20602;-54
2022/08/20 00:54:18;;;;;;;;;;;15.00;99.90;;;;;;5051302;28;19993;-52
2022/08/20 00:56:48;;;;;;;;;;;15.00;99.90;;;;;;5052404;28;19924;-53
2022/08/20 00:59:16;;;;;;;;;;;15.00;99.90;;;;;;5051394;28;19952;-54
2022/08/20 01:01:43;;;;;;;;;;;15.10;99.90;;;;;;5052152;28;19928;-55
2022/08/20 01:04:23;;;;;;;;;;;15.00;99.90;;;;;;5052510;28;19924;-54
2022/08/20 01:06:51;;;;;;;;;;;15.00;99.90;;;;;;5052063;28;20002;-54
2022/08/20 01:09:17;;;;;;;;;;;15.00;99.90;;;;;;5052893;28;19990;-54
2022/08/20 01:12:05;;;;;;;;;;;15.00;99.90;;;;;;5039076;28;20017;-51
2022/08/20 01:17:01;;;;;;;;;;;15.00;99.90;;;;;;5053134;28;20662;-54
2022/08/20 01:19:30;;;;;;;;;;;15.00;99.90;;;;;;5051948;28;19960;-53
2022/08/20 01:21:57;;;;;;;;;;;15.00;99.90;;;;;;5054835;28;19928;-52
2022/08/20 01:24:33;;;;;;;;;;;15.00;99.90;;;;;;5055385;28;20504;-53
2022/08/20 01:27:01;;;;;;;;;;;14.90;99.90;;;;;;5055951;28;19924;-52
2022/08/20 01:29:33;;;;;;;;;;;14.90;99.90;;;;;;5055621;28;19931;-52
2022/08/20 01:32:01;;;;;;;;;;;14.80;99.90;;;;;;5055851;28;19935;-51
2022/08/20 01:34:28;;;;;;;;;;;14.80;99.90;;;;;;5055071;28;19932;-52
2022/08/20 01:36:56;;;;;;;;;;;14.80;99.90;;;;;;5056068;28;19967;-52
2022/08/20 01:39:24;;;;;;;;;;;14.70;99.90;;;;;;5055818;28;19924;-52
2022/08/20 01:41:56;;;;;;;;;;;14.70;99.90;;;;;;5053046;28;19924;-52
2022/08/20 01:44:23;;;;;;;;;;;14.70;99.90;;;;;;5054157;28;19994;-56
2022/08/20 01:46:54;;;;;;;;;;;14.70;99.90;;;;;;5054902;28;19924;-55
2022/08/20 01:49:23;;;;;;;;;;;14.70;99.90;;;;;;5055346;28;19924;-53
2022/08/20 01:51:51;;;;;;;;;;;14.60;99.90;;;;;;5055116;28;20022;-53
2022/08/20 01:54:18;;;;;;;;;;;14.60;99.90;;;;;;5055464;28;19932;-52
2022/08/20 01:56:57;;;;;;;;;;;14.60;99.90;;;;;;5055407;28;19993;-52
2022/08/20 01:59:23;;;;;;;;;;;14.60;99.90;;;;;;5054816;28;20116;-52
2022/08/20 02:01:51;;;;;;;;;;;14.50;99.90;;;;;;5055022;28;19951;-52
2022/08/20 02:04:18;;;;;;;;;;;14.50;99.90;;;;;;5055384;28;19946;-51
2022/08/20 02:06:50;;;;;;;;;;;14.50;99.90;;;;;;5055479;28;19924;-53
2022/08/20 02:09:31;;;;;;;;;;;14.50;99.90;;;;;;5054622;28;20027;-53
2022/08/20 02:11:58;;;;;;;;;;;14.40;99.90;;;;;;5039756;28;19928;-50
2022/08/20 02:14:25;;;;;;;;;;;14.40;99.90;;;;;;5052747;28;20522;-52
2022/08/20 02:16:52;;;;;;;;;;;14.40;99.90;;;;;;5054787;28;19928;-52
2022/08/20 02:19:22;;;;;;;;;;;14.30;99.90;;;;;;5055272;28;20259;-52
2022/08/20 02:21:51;;;;;;;;;;;14.30;99.90;;;;;;5054411;28;19985;-53
2022/08/20 02:24:18;;;;;;;;;;;14.30;99.90;;;;;;5054400;28;19948;-53
2022/08/20 02:26:46;;;;;;;;;;;14.20;99.90;;;;;;5054768;28;19931;-51
2022/08/20 02:29:13;;;;;;;;;;;14.20;99.90;;;;;;5054809;28;19920;-54
2022/08/20 02:31:42;;;;;;;;;;;14.20;99.90;;;;;;5054296;28;19928;-53
2022/08/20 02:34:29;;;;;;;;;;;14.20;99.90;;;;;;5054374;28;20549;-55
2022/08/20 02:36:56;;;;;;;;;;;14.10;99.90;;;;;;5054925;28;19960;-55
2022/08/20 02:39:22;;;;;;;;;;;14.10;99.90;;;;;;5054266;28;20357;-54
2022/08/20 02:41:49;;;;;;;;;;;14.10;99.90;;;;;;5054526;28;19932;-54
2022/08/20 02:44:17;;;;;;;;;;;14.10;99.90;;;;;;5054176;28;19924;-53
2022/08/20 02:46:44;;;;;;;;;;;14.10;99.90;;;;;;5053380;28;19929;-54
2022/08/20 02:49:10;;;;;;;;;;;14.00;99.90;;;;;;5054300;28;19928;-53
2022/08/20 02:51:37;;;;;;;;;;;14.00;99.90;;;;;;5054120;28;19985;-52
2022/08/20 02:54:04;;;;;;;;;;;14.00;99.90;;;;;;5054179;28;19932;-50
2022/08/20 02:56:30;;;;;;;;;;;14.00;99.90;;;;;;5054058;28;19956;-52
2022/08/20 02:58:57;;;;;;;;;;;13.90;99.90;;;;;;5054068;28;19924;-52
2022/08/20 03:01:24;;;;;;;;;;;13.90;99.90;;;;;;5053298;28;19928;-51
2022/08/20 03:03:51;;;;;;;;;;;13.90;99.90;;;;;;5037146;28;19951;-52
2022/08/20 03:06:17;;;;;;;;;;;13.90;99.90;;;;;;5033806;28;20568;-52
2022/08/20 03:08:44;;;;;;;;;;;13.80;99.90;;;;;;5034185;28;19983;-52
2022/08/20 03:11:11;;;;;;;;;;;13.80;99.90;;;;;;5047535;28;19931;-52
2022/08/20 03:13:38;;;;;;;;;;;13.80;99.90;;;;;;5050675;28;19929;-51
2022/08/20 03:16:06;;;;;;;;;;;13.80;99.90;;;;;;5050858;28;19924;-53
2022/08/20 03:18:35;;;;;;;;;;;13.80;99.90;;;;;;5053977;28;20021;-53
2022/08/20 03:21:03;;;;;;;;;;;13.70;99.90;;;;;;5052799;28;20405;-52
2022/08/20 03:23:32;;;;;;;;;;;13.70;99.90;;;;;;5053886;28;20534;-52
2022/08/20 03:26:02;;;;;;;;;;;13.70;99.90;;;;;;5054174;28;19934;-52
2022/08/20 03:28:30;;;;;;;;;;;13.70;99.90;;;;;;5052016;28;19924;-53
2022/08/20 03:30:58;;;;;;;;;;;13.70;99.90;;;;;;5053144;28;19932;-53
2022/08/20 03:33:26;;;;;;;;;;;13.70;99.90;;;;;;5053899;28;19928;-52
2022/08/20 03:35:52;;;;;;;;;;;13.70;99.90;;;;;;5051844;28;20676;-54
2022/08/20 03:38:20;;;;;;;;;;;13.70;99.90;;;;;;5053844;28;19930;-52
2022/08/20 03:40:58;;;;;;;;;;;13.70;99.90;;;;;;5054277;28;19985;-52
2022/08/20 03:43:25;;;;;;;;;;;13.60;99.90;;;;;;5054012;28;19977;-51
2022/08/20 03:45:51;;;;;;;;;;;13.60;99.90;;;;;;5054418;28;19924;-52
2022/08/20 03:48:19;;;;;;;;;;;13.60;99.90;;;;;;5052457;28;19928;-52
2022/08/20 03:50:46;;;;;;;;;;;13.60;99.90;;;;;;5053945;28;19968;-53
2022/08/20 03:53:14;;;;;;;;;;;13.60;99.90;;;;;;5053564;28;19924;-53
2022/08/20 03:55:42;;;;;;;;;;;13.60;99.90;;;;;;5054555;28;19924;-52
2022/08/20 03:58:12;;;;;;;;;;;13.60;99.90;;;;;;5054209;28;19932;-53
2022/08/20 04:00:39;;;;;;;;;;;13.60;99.90;;;;;;5054399;28;20041;-51
2022/08/20 04:03:07;;;;;;;;;;;13.60;99.90;;;;;;5053313;28;19932;-52
2022/08/20 04:05:39;;;;;;;;;;;13.60;99.90;;;;;;5054131;28;20372;-53
2022/08/20 04:08:10;;;;;;;;;;;13.60;99.90;;;;;;5054382;28;19928;-52
2022/08/20 04:10:37;;;;;;;;;;;13.50;99.90;;;;;;5052443;28;19927;-52
2022/08/20 04:13:05;;;;;;;;;;;13.50;99.90;;;;;;5053777;28;19982;-52
2022/08/20 04:15:35;;;;;;;;;;;13.50;99.90;;;;;;5052103;28;19931;-55
2022/08/20 04:18:05;;;;;;;;;;;13.50;99.90;;;;;;5054617;28;20450;-52
2022/08/20 04:20:32;;;;;;;;;;;13.50;99.90;;;;;;5054216;28;19931;-51
2022/08/20 04:23:00;;;;;;;;;;;13.50;99.90;;;;;;5053260;28;20014;-53
2022/08/20 04:25:30;;;;;;;;;;;13.50;99.90;;;;;;5054545;28;19924;-53
2022/08/20 04:28:04;;;;;;;;;;;13.50;99.90;;;;;;5052415;28;19924;-52
2022/08/20 04:30:31;;;;;;;;;;;13.50;99.90;;;;;;5054352;28;19967;-53
2022/08/20 04:32:58;;;;;;;;;;;13.50;99.90;;;;;;5054059;28;20437;-52
2022/08/20 04:35:25;;;;;;;;;;;13.50;99.90;;;;;;5054306;28;20006;-53
2022/08/20 04:37:57;;;;;;;;;;;13.50;99.90;;;;;;5054113;28;19929;-52
2022/08/20 04:43:09;;;;;;;;;;;13.50;99.90;;;;;;5051942;28;19932;-53
2022/08/20 04:45:37;;;;;;;;;;;13.50;99.90;;;;;;5053644;28;19924;-53
2022/08/20 04:48:05;;;;;;;;;;;13.50;99.90;;;;;;5052368;28;19925;-52
2022/08/20 04:50:35;;;;;;;;;;;13.60;99.90;;;;;;5053617;28;19928;-53
2022/08/20 04:53:06;;;;;;;;;;;13.60;99.90;;;;;;5053695;28;19936;-53
2022/08/20 04:55:34;;;;;;;;;;;13.60;99.90;;;;;;5053917;28;19924;-54
2022/08/20 04:58:05;;;;;;;;;;;13.60;99.90;;;;;;5057939;28;19931;-51
2022/08/20 05:00:31;;;;;;;;;;;13.60;99.90;;;;;;5056277;28;19925;-54
2022/08/20 05:02:58;;;;;;;;;;;13.70;99.90;;;;;;5056333;28;20711;-53
2022/08/20 05:05:26;;;;;;;;;;;13.70;99.90;;;;;;5057445;28;19921;-53
2022/08/20 05:07:54;;;;;;;;;;;13.70;99.90;;;;;;5056019;28;19931;-51
2022/08/20 05:10:22;;;;;;;;;;;13.80;99.90;;;;;;5057405;28;19924;-51
2022/08/20 05:12:49;;;;;;;;;;;13.80;99.90;;;;;;5055212;28;19924;-54
2022/08/20 05:15:26;;;;;;;;;;;13.90;99.90;;;;;;5056591;28;19928;-52
2022/08/20 05:17:54;;;;;;;;;;;13.90;99.90;;;;;;5054241;28;19935;-52
2022/08/20 05:20:21;;;;;;;;;;;14.00;99.90;;;;;;5057435;28;19928;-53
2022/08/20 05:22:50;;;;;;;;;;;14.00;99.90;;;;;;5056835;28;20457;-51
2022/08/20 05:25:17;;;;;;;;;;;14.10;99.90;;;;;;5056746;28;19924;-52
2022/08/20 05:27:43;;;;;;;;;;;14.10;99.90;;;;;;5057336;28;19979;-54
2022/08/20 05:30:13;;;;;;;;;;;14.20;99.90;;;;;;5056380;28;19978;-51
2022/08/20 05:32:41;;;;;;;;;;;14.30;99.90;;;;;;5057515;28;20022;-52
2022/08/20 05:35:10;;;;;;;;;;;14.40;99.90;;;;;;5056898;28;20031;-53
2022/08/20 05:37:38;;;;;;;;;;;14.40;99.90;;;;;;5056846;28;19977;-53
2022/08/20 05:40:09;;;;;;;;;;;14.50;99.90;;;;;;5057178;28;19930;-54
2022/08/20 05:42:36;;;;;;;;;;;14.60;99.90;;;;;;5052406;28;19964;-52
2022/08/20 05:45:03;;;;;;;;;;;14.70;99.90;;;;;;5057128;28;19924;-53
2022/08/20 05:47:37;;;;;;;;;;;14.70;99.90;;;;;;5056443;28;19951;-52
2022/08/20 05:50:09;;;;;;;;;;;14.80;99.90;;;;;;5057109;28;19924;-50
2022/08/20 05:52:45;;;;;;;;;;;14.90;99.90;;;;;;5054914;28;19994;-51
2022/08/20 05:55:12;;;;;;;;;;;15.00;99.90;;;;;;5055604;28;19924;-51
2022/08/20 05:57:39;;;;;;;;;;;15.10;99.90;;;;;;5057550;28;20395;-48
2022/08/20 06:00:08;;;;;;;;;;;15.20;99.90;;;;;;5056318;28;19925;-49
2022/08/20 06:05:24;;;;;;;;;;;15.40;99.90;;;;;;5055807;28;19931;-50
2022/08/20 06:07:51;;;;;;;;;;;15.40;99.90;;;;;;5056380;28;20035;-51
2022/08/20 06:10:21;;;;;;;;;;;15.50;99.90;;;;;;5055549;28;19924;-50
2022/08/20 06:12:48;;;;;;;;;;;15.60;99.90;;;;;;5056494;28;19932;-52
2022/08/20 06:15:14;;;;;;;;;;;15.60;99.90;;;;;;5055911;28;19978;-51
2022/08/20 06:17:41;;;;;;;;;;;15.60;99.90;;;;;;5054638;28;20901;-49
2022/08/20 06:20:08;;;;;;;;;;;15.60;99.90;;;;;;5056024;28;19929;-53
2022/08/20 06:22:36;;;;;;;;;;;15.70;99.90;;;;;;5056230;28;19928;-50
2022/08/20 06:25:04;;;;;;;;;;;15.70;99.90;;;;;;5054524;28;20309;-52
2022/08/20 06:27:31;;;;;;;;;;;15.80;99.90;;;;;;5055479;28;20586;-50
2022/08/20 06:30:01;;;;;;;;;;;15.90;99.90;;;;;;5056264;28;19931;-51
2022/08/20 06:32:28;;;;;;;;;;;16.00;99.90;;;;;;5056070;28;19924;-53
2022/08/20 06:35:00;;;;;;;;;;;16.20;99.90;;;;;;5055222;28;19924;-51
2022/08/20 06:37:28;;;;;;;;;;;16.30;99.90;;;;;;5056188;28;20408;-50
2022/08/20 06:40:18;;;;;;;;;;;16.40;99.90;;;;;;5055124;28;19928;-51
2022/08/20 06:42:45;;;;;;;;;;;16.60;99.90;;;;;;5054181;28;19924;-51
2022/08/20 06:45:16;;;;;;;;;;;16.60;99.90;;;;;;5055688;28;20764;-50
2022/08/20 06:47:44;;;;;;;;;;;16.70;99.90;;;;;;5054399;28;19978;-51
2022/08/20 06:50:13;;;;;;;;;;;16.90;99.90;;;;;;5055641;28;20666;-51
2022/08/20 06:52:40;;;;;;;;;;;17.00;99.90;;;;;;5055522;28;20459;-51
2022/08/20 06:55:19;;;;;;;;;;;17.10;99.90;;;;;;5055281;28;19931;-49
2022/08/20 06:57:47;;;;;;;;;;;17.30;99.90;;;;;;5053903;28;19924;-49
2022/08/20 07:00:15;;;;;;;;;;;17.30;99.90;;;;;;5055486;28;19924;-52
2022/08/20 07:02:42;;;;;;;;;;;17.40;99.90;;;;;;5053595;28;20725;-50
2022/08/20 07:05:09;;;;;;;;;;;17.40;99.90;;;;;;5054604;28;19924;-48
2022/08/20 07:07:36;;;;;;;;;;;17.40;99.90;;;;;;5054924;28;19924;-49
2022/08/20 07:10:07;;;;;;;;;;;17.40;99.90;;;;;;5055527;28;19925;-49
2022/08/20 07:12:35;;;;;;;;;;;17.50;99.90;;;;;;5054911;28;20512;-57
2022/08/20 07:15:06;;;;;;;;;;;17.60;99.90;;;;;;5054760;28;19928;-49
2022/08/20 07:17:33;;;;;;;;;;;17.70;99.90;;;;;;5053474;28;20364;-51
2022/08/20 07:20:26;;;;;;;;;;;17.80;99.90;;;;;;5052588;28;20048;-52
2022/08/20 07:22:53;;;;;;;;;;;17.90;99.90;;;;;;5054351;28;20007;-48
2022/08/20 07:25:20;;;;;;;;;;;18.00;99.90;;;;;;5054450;28;19951;-49
2022/08/20 07:27:48;;;;;;;;;;;18.10;99.90;;;;;;5054936;28;19935;-49
2022/08/20 07:33:24;;;;;;;;;;;18.30;99.90;;;;;;5053762;28;20692;-52
2022/08/20 07:35:51;;;;;;;;;;;18.40;99.90;;;;;;5052918;28;19928;-51
2022/08/20 07:38:29;;;;;;;;;;;18.50;99.90;;;;;;5055021;28;19924;-50
2022/08/20 07:40:58;;;;;;;;;;;18.50;99.90;;;;;;5054160;28;19985;-51
2022/08/20 07:43:24;;;;;;;;;;;18.50;99.90;;;;;;5049467;28;19920;-53
2022/08/20 07:45:55;;;;;;;;;;;18.50;99.90;;;;;;5054901;28;19920;-53
2022/08/20 07:48:24;;;;;;;;;;;18.50;99.90;;;;;;5054092;28;20460;-52
2022/08/20 07:50:58;;;;;;;;;;;18.40;99.90;;;;;;5054630;28;19925;-50
2022/08/20 07:53:25;;;;;;;;;;;18.40;99.90;;;;;;5052464;28;19924;-51
2022/08/20 07:55:52;;;;;;;;;;;18.80;99.90;;;;;;5054960;28;19988;-52
2022/08/20 07:58:24;;;;;;;;;;;19.50;99.90;;;;;;5053696;28;19931;-51
2022/08/20 08:00:59;;;;;;;;;;;20.30;99.90;;;;;;5054792;28;20047;-52
2022/08/20 08:03:27;;;;;;;;;;;20.90;99.90;;;;;;5054859;28;20461;-54
2022/08/20 08:06:15;;;;;;;;;;;21.00;99.90;;;;;;5053761;28;19931;-55
2022/08/20 08:08:57;;;;;;;;;;;20.60;99.90;;;;;;5054346;28;19932;-54
2022/08/20 08:11:23;;;;;;;;;;;20.20;99.90;;;;;;5053570;28;19924;-55
2022/08/20 08:13:50;;;;;;;;;;;19.90;99.90;;;;;;5053937;28;20020;-53
2022/08/20 08:16:18;;;;;;;;;;;19.90;99.90;;;;;;5053615;28;19928;-54
2022/08/20 08:18:48;;;;;;;;;;;19.80;99.90;;;;;;5054129;28;19924;-53
2022/08/20 08:21:16;;;;;;;;;;;19.70;99.90;;;;;;5050524;28;19928;-53
2022/08/20 08:23:43;;;;;;;;;;;19.50;99.90;;;;;;5054255;28;19920;-60
2022/08/20 08:26:13;;;;;;;;;;;19.40;99.90;;;;;;5054536;28;19957;-55
2022/08/20 08:28:44;;;;;;;;;;;19.30;99.90;;;;;;5053712;28;19924;-55
2022/08/20 08:31:11;;;;;;;;;;;19.20;99.90;;;;;;5057005;28;19920;-53
2022/08/20 08:33:39;;;;;;;;;;;19.10;99.90;;;;;;5057698;28;19992;-54
2022/08/20 08:36:08;;;;;;;;;;;18.90;99.90;;;;;;5056799;28;20346;-56
2022/08/20 08:38:39;;;;;;;;;;;18.90;99.90;;;;;;5057806;28;20363;-55
2022/08/20 08:41:20;;;;;;;;;;;18.80;99.90;;;;;;5056788;28;20897;-55
2022/08/20 08:43:48;;;;;;;;;;;18.80;99.90;;;;;;5057684;28;20402;-50
2022/08/20 08:46:17;;;;;;;;;;;18.80;99.90;;;;;;5058075;28;20382;-50
2022/08/20 08:48:45;;;;;;;;;;;19.00;99.90;;;;;;5058351;28;19931;-50
2022/08/20 08:51:15;;;;;;;;;;;19.40;99.90;;;;;;5057289;28;19924;-51
2022/08/20 08:53:55;;;;;;;;;;;19.90;99.90;;;;;;5057819;28;19921;-54
2022/08/20 08:56:23;;;;;;;;;;;20.20;99.90;;;;;;5057551;28;19931;-54
2022/08/20 08:58:50;;;;;;;;;;;20.30;99.90;;;;;;5058336;28;19975;-55
2022/08/20 09:01:19;;;;;;;;;;;20.30;99.90;;;;;;5057522;28;19928;-55
2022/08/20 09:04:06;;;;;;;;;;;20.30;99.90;;;;;;5058008;28;19960;-54
2022/08/20 09:06:34;;;;;;;;;;;20.10;99.90;;;;;;5056514;28;20405;-53
2022/08/20 09:09:03;;;;;;;;;;;19.90;99.90;;;;;;5055723;28;19958;-55
2022/08/20 09:11:43;;;;;;;;;;;19.70;99.90;;;;;;5056531;28;20631;-55
2022/08/20 09:14:09;;;;;;;;;;;19.50;99.90;;;;;;5056746;28;20329;-55
2022/08/20 09:16:36;;;;;;;;;;;19.40;99.90;;;;;;5057034;28;19921;-56
2022/08/20 09:19:20;;;;;;;;;;;19.30;99.90;;;;;;5054848;28;20489;-57
2022/08/20 09:21:46;;;;;;;;;;;19.30;99.90;;;;;;5055741;28;19924;-50
2022/08/20 09:24:13;;;;;;;;;;;19.40;99.90;;;;;;5056437;28;19932;-55
2022/08/20 09:26:40;;;;;;;;;;;19.50;99.90;;;;;;5056009;28;20020;-53
2022/08/20 09:29:07;;;;;;;;;;;19.50;99.90;;;;;;5056860;28;20709;-54
2022/08/20 09:31:34;;;;;;;;;;;19.50;99.90;;;;;;5056797;28;19924;-52
2022/08/20 09:34:03;;;;;;;;;;;19.50;99.90;;;;;;5056109;28;19920;-52
2022/08/20 09:36:30;;;;;;;;;;;19.50;99.90;;;;;;5057184;28;19986;-52
2022/08/20 09:38:59;;;;;;;;;;;19.40;99.90;;;;;;5056959;28;19925;-53
2022/08/20 09:41:26;;;;;;;;;;;19.40;99.90;;;;;;5055286;28;19924;-53
2022/08/20 09:43:53;;;;;;;;;;;19.40;99.90;;;;;;5055350;28;19958;-54
2022/08/20 09:46:20;;;;;;;;;;;19.40;99.90;;;;;;5056784;28;20027;-51
2022/08/20 09:48:53;;;;;;;;;;;19.30;99.90;;;;;;5056379;28;20017;-53
2022/08/20 09:51:20;;;;;;;;;;;19.30;99.90;;;;;;5055672;28;20553;-54
2022/08/20 09:53:47;;;;;;;;;;;19.40;99.90;;;;;;5056150;28;20792;-55
2022/08/20 09:56:15;;;;;;;;;;;19.70;99.90;;;;;;5055061;28;19931;-56
2022/08/20 09:58:49;;;;;;;;;;;20.20;99.90;;;;;;5055688;28;19966;-55
2022/08/20 10:01:17;;;;;;;;;;;20.60;99.90;;;;;;5056997;28;19924;-54
2022/08/20 10:03:46;;;;;;;;;;;20.80;99.90;;;;;;5054328;28;20493;-55
2022/08/20 10:06:15;;;;;;;;;;;21.00;99.90;;;;;;5056539;28;19924;-55
2022/08/20 10:08:42;;;;;;;;;;;21.10;99.90;;;;;;5056414;28;19924;-54
2022/08/20 10:11:09;;;;;;;;;;;21.20;99.90;;;;;;5055688;28;19924;-55
2022/08/20 10:13:35;;;;;;;;;;;21.00;99.90;;;;;;5056490;28;19951;-54
2022/08/20 10:16:02;;;;;;;;;;;20.80;99.90;;;;;;5056136;28;19920;-54
2022/08/20 10:18:29;;;;;;;;;;;20.60;99.90;;;;;;5056727;28;19946;-55
2022/08/20 10:20:56;;;;;;;;;;;20.40;99.90;;;;;;5056188;28;20037;-55
2022/08/20 10:23:22;;;;;;;;;;;20.30;99.90;;;;;;5056006;28;20706;-54
2022/08/20 10:25:49;;;;;;;;;;;20.10;99.90;;;;;;5058301;28;19924;-54
2022/08/20 10:28:16;;;;;;;;;;;20.00;99.90;;;;;;5056340;28;19977;-54
2022/08/20 10:30:43;;;;;;;;;;;19.90;99.90;;;;;;5056069;28;19927;-54
2022/08/20 10:33:10;;;;;;;;;;;19.80;99.90;;;;;;5055330;28;20286;-55
2022/08/20 10:35:37;;;;;;;;;;;19.80;99.90;;;;;;5056342;28;19927;-53
2022/08/20 10:38:04;;;;;;;;;;;19.80;99.90;;;;;;5055833;28;19967;-55
2022/08/20 10:40:31;;;;;;;;;;;19.90;99.90;;;;;;5054491;28;20010;-53
2022/08/20 10:42:57;;;;;;;;;;;20.00;99.90;;;;;;5055369;28;19947;-55
2022/08/20 10:45:24;;;;;;;;;;;20.10;99.90;;;;;;5054850;28;20824;-56
2022/08/20 10:47:51;;;;;;;;;;;20.30;99.90;;;;;;5055460;28;19921;-55
2022/08/20 10:50:18;;;;;;;;;;;20.50;99.90;;;;;;5055380;28;19998;-56
2022/08/20 10:52:46;;;;;;;;;;;20.60;99.90;;;;;;5055232;28;19926;-54
2022/08/20 10:55:13;;;;;;;;;;;20.60;99.90;;;;;;5054128;28;20007;-54
2022/08/20 10:57:40;;;;;;;;;;;20.70;99.90;;;;;;5054705;28;19931;-54
2022/08/20 11:00:10;;;;;;;;;;;20.70;99.90;;;;;;5055622;28;20102;-55
2022/08/20 11:02:37;;;;;;;;;;;20.70;99.90;;;;;;5055238;28;20006;-53
2022/08/20 11:05:04;;;;;;;;;;;20.70;99.90;;;;;;5055074;28;19959;-53
2022/08/20 11:07:33;;;;;;;;;;;20.70;99.90;;;;;;5055210;28;19924;-54
2022/08/20 11:10:20;;;;;;;;;;;20.70;99.90;;;;;;5053556;28;20118;-55
2022/08/20 11:12:47;;;;;;;;;;;20.70;99.90;;;;;;5054596;28;19920;-55
2022/08/20 11:15:14;;;;;;;;;;;20.70;99.90;;;;;;5054660;28;20452;-55
2022/08/20 11:17:41;;;;;;;;;;;20.70;99.90;;;;;;5054605;28;19964;-54
2022/08/20 11:20:10;;;;;;;;;;;20.60;99.90;;;;;;5055155;28;20481;-53
2022/08/20 11:22:36;;;;;;;;;;;20.60;99.90;;;;;;5052209;28;20318;-54
2022/08/20 11:25:04;;;;;;;;;;;20.60;99.90;;;;;;5053660;28;19928;-55
2022/08/20 11:27:33;;;;;;;;;;;20.70;99.90;;;;;;5055408;28;20916;-55
2022/08/20 11:30:00;;;;;;;;;;;20.80;99.90;;;;;;5054249;28;19989;-55
2022/08/20 11:32:26;;;;;;;;;;;21.10;99.90;;;;;;5054803;28;20053;-54
2022/08/20 11:34:53;;;;;;;;;;;21.40;99.90;;;;;;5053284;28;20421;-54
2022/08/20 11:37:22;;;;;;;;;;;21.80;99.90;;;;;;5053914;28;19924;-52
2022/08/20 11:39:49;;;;;;;;;;;22.10;99.90;;;;;;5053707;28;20725;-52
2022/08/20 11:42:16;;;;;;;;;;;22.20;99.90;;;;;;5052151;28;19924;-54
2022/08/20 11:44:43;;;;;;;;;;;22.40;99.90;;;;;;5052474;28;19924;-54
2022/08/20 11:47:19;;;;;;;;;;;22.50;99.90;;;;;;5054439;28;19920;-54
2022/08/20 11:49:45;;;;;;;;;;;22.60;99.90;;;;;;5054495;28;20451;-55
2022/08/20 11:52:12;;;;;;;;;;;22.70;99.90;;;;;;5052724;28;19936;-54
2022/08/20 11:54:43;;;;;;;;;;;22.70;99.90;;;;;;5054401;28;20287;-55
2022/08/20 11:57:10;;;;;;;;;;;22.60;99.90;;;;;;5054662;28;19931;-54
2022/08/20 11:59:36;;;;;;;;;;;22.70;99.90;;;;;;5052485;28;19973;-54
2022/08/20 12:02:03;;;;;;;;;;;22.60;99.90;;;;;;5054835;28;20575;-54
2022/08/20 12:04:34;;;;;;;;;;;22.60;99.90;;;;;;5052590;28;19986;-53
2022/08/20 12:07:08;;;;;;;;;;;22.60;99.90;;;;;;5054586;28;19931;-52
2022/08/20 12:09:35;;;;;;;;;;;22.60;99.90;;;;;;5061651;28;19924;-53
2022/08/20 12:12:07;;;;;;;;;;;22.70;99.90;;;;;;5053244;28;20651;-50
2022/08/20 12:14:35;;;;;;;;;;;22.80;99.90;;;;;;5051642;28;19924;-50
2022/08/20 12:17:18;;;;;;;;;;;22.90;99.90;;;;;;5052322;28;19928;-52
2022/08/20 12:19:45;;;;;;;;;;;22.90;99.90;;;;;;5051346;28;20350;-51
2022/08/20 12:22:12;;;;;;;;;;;22.80;99.90;;;;;;5053425;28;19931;-51
2022/08/20 12:27:48;;;;;;;1.95;1.38;;;22.70;99.90;;;;;;5091177;27;20817;-58
2022/08/20 12:30:18;;;;;;;1.15;1.08;;;22.60;99.90;;;;;;5080526;28;20055;-56
2022/08/20 12:32:46;;;;;;;0.98;0.98;;;22.50;99.90;;;;;;5051317;28;20045;-55
2022/08/20 12:35:14;;;;;;;3.80;1.45;;;22.40;99.90;;;;;;5050503;28;20048;-56
2022/08/20 12:37:42;;;;;;;2.30;1.10;;;22.30;99.90;;;;;;5051676;28;20048;-56
2022/08/20 12:40:12;;;;;;;1.20;1.20;;;22.10;99.90;;;;;;5049621;28;20106;-55
2022/08/20 12:42:39;;;;;;;1.15;1.10;;;22.00;99.90;;;;;;5044202;28;20071;-56
2022/08/20 12:45:07;;;;;;;1.08;1.08;;;22.00;99.90;;;;;;5049217;28;20041;-56
2022/08/20 12:47:37;;;;;;;1.27;1.20;;;21.90;99.90;;;;;;5049846;28;20117;-56
2022/08/20 12:50:11;;;;;;;1.52;1.42;;;21.90;99.90;;;;;;5050952;28;20051;-57
2022/08/20 12:52:38;;;;;;;1.38;1.27;;;21.90;99.90;;;;;;5047524;28;20064;-57
2022/08/20 12:55:07;;;;;;;1.45;1.35;;;21.90;99.90;;;;;;5048496;28;20102;-56
2022/08/20 12:57:37;;;;;;;1.38;1.27;;;22.00;99.90;;;;;;5044732;28;20044;-57
2022/08/20 13:00:12;;;;;;;1.27;1.27;;;22.10;99.90;;;;;;5043406;28;20056;-52
2022/08/20 13:02:40;;;;;;;1.25;1.15;;;22.20;99.90;;;;;;5047386;28;20503;-53
2022/08/20 13:05:08;;;;;;;1.38;1.27;;;22.40;99.90;;;;;;5046389;28;20048;-54
2022/08/20 13:07:36;;;;;;;1.60;1.50;;;22.40;99.90;;;;;;5046403;28;20051;-53
2022/08/20 13:10:05;;;;;;;1.30;1.20;;;22.50;99.90;;;;;;5047723;28;20041;-54
2022/08/20 13:12:32;;;;;;;1.83;1.13;;;22.60;99.90;;;;;;5047021;28;20123;-55
2022/08/20 13:14:59;;;;;;;1.25;1.20;;;22.60;99.90;;;;;;5046016;28;20040;-55
2022/08/20 13:17:26;;;;;;;1.15;1.13;;;22.50;99.90;;;;;;5045225;28;20051;-54
2022/08/20 13:20:08;;;;;;;1.58;1.20;;;22.50;99.90;;;;;;5046811;28;20071;-53
2022/08/20 13:22:35;;;;;;;2.53;1.45;;;22.50;99.90;;;;;;5047862;28;20128;-53
2022/08/20 13:25:03;;;;;;;1.33;1.23;;;22.50;99.90;;;;;;5040055;28;20072;-59
2022/08/20 13:27:31;;;;;;;1.90;0.90;;;22.50;99.90;;;;;;5025260;28;20861;-58
2022/08/20 13:29:58;;;;;;;1.10;0.95;;;22.40;99.90;;;;;;5028826;28;20037;-56
2022/08/20 13:32:25;;;;;;;0.93;0.93;;;22.40;99.90;;;;;;5044522;28;20037;-57
2022/08/20 13:34:53;;;;;;;1.02;1.02;;;22.40;99.90;;;;;;5047671;28;20045;-56
2022/08/20 13:37:25;;;;;;;12.07;1.27;;;22.40;99.90;;;;;;5043121;28;20048;-57
2022/08/20 13:39:54;;;;;;;1.13;1.05;;;22.40;99.90;;;;;;5032897;28;20045;-57
2022/08/20 13:42:21;;;;;;;1.30;1.20;;;22.50;99.90;;;;;;5021510;28;20053;-51
2022/08/20 13:44:48;;;;;;;1.15;1.15;;;22.50;99.90;;;;;;5015181;28;20122;-58
2022/08/20 13:47:28;;;;;;;1.33;1.23;;;22.50;99.90;;;;;;5030487;28;20037;-57
2022/08/20 13:50:03;;;;;;;1.30;1.20;;;22.40;99.90;;;;;;5033754;28;20175;-52
2022/08/20 13:52:31;;;;;;;1.33;1.23;;;22.30;99.90;;;;;;5011687;28;20048;-54
2022/08/20 13:55:02;;;;;;;0.95;0.93;;;22.20;99.90;;;;;;5030807;28;20774;-54
2022/08/20 13:57:33;;;;;;;0.80;0.80;;;22.10;99.90;;;;;;5030331;28;20128;-56
2022/08/20 14:00:02;;;;;;;1.40;1.30;;;22.00;99.90;;;;;;5015921;28;20084;-55
2022/08/20 14:02:30;;;;;;;1.25;1.20;;;21.80;99.90;;;;;;5032370;28;20048;-56
2022/08/20 14:04:57;;;;;;;1.30;1.20;;;21.80;99.90;;;;;;5032880;28;20762;-57
2022/08/20 14:07:27;;;;;;;1.30;1.20;;;21.70;99.90;;;;;;5032119;28;20056;-54
2022/08/20 14:10:03;;;;;;;1.55;1.45;;;21.70;99.90;;;;;;5016720;28;20060;-52
2022/08/20 14:12:30;;;;;;;1.10;1.08;;;21.60;99.90;;;;;;5030371;28;20044;-54
2022/08/20 14:14:57;;;;;;;1.70;1.20;;;21.60;99.90;;;;;;5019836;28;20088;-57
2022/08/20 14:17:26;;;;;;;1.98;1.13;;;21.50;99.90;;;;;;5012400;28;20382;-56
2022/08/20 14:19:58;;;;;;;1.48;1.38;;;21.50;99.90;;;;;;5013227;28;20069;-56
2022/08/20 14:22:28;;;;;;;2.97;1.38;;;21.60;99.90;;;;;;5011409;28;20081;-55
2022/08/20 14:24:55;;;;;;;1.45;1.35;;;21.60;99.90;;;;;;5012815;28;20915;-55
2022/08/20 14:27:23;;;;;;;1.10;1.00;;;21.60;99.90;;;;;;5008714;28;20088;-55